createdAt,value
2022-10-19T00:00:15.393Z,13.60
2022-10-19T00:00:47.893Z,12.57
2022-10-19T00:01:22.134Z,14.02
2022-10-19T00:01:53.991Z,17.92
2022-10-19T00:02:25.870Z,18.27
2022-10-19T00:02:57.735Z,11.95
2022-10-19T00:03:29.900Z,17.50
2022-10-19T00:04:04.834Z,18.00
2022-10-19T00:04:39.822Z,13.73
2022-10-19T00:05:11.663Z,15.38
2022-10-19T00:05:43.656Z,14.20
2022-10-19T00:06:15.765Z,15.32
2022-10-19T00:06:47.626Z,13.57
2022-10-19T00:07:19.432Z,16.62
2022-10-19T00:07:51.285Z,17.92
2022-10-19T00:08:23.205Z,16.35
2022-10-19T00:08:57.478Z,13.05
2022-10-19T00:09:29.364Z,15.35
2022-10-19T00:10:01.243Z,14.87
2022-10-19T00:10:33.674Z,14.73
2022-10-19T00:11:05.625Z,14.68
2022-10-19T00:11:40.913Z,11.95
2022-10-19T00:12:13.334Z,13.95
2022-10-19T00:12:45.216Z,13.75
2022-10-19T00:13:17.094Z,14.13
2022-10-19T00:13:48.977Z,15.73
2022-10-19T00:14:23.949Z,14.68
2022-10-19T00:14:55.885Z,14.75
2022-10-19T00:15:27.765Z,13.25
2022-10-19T00:15:59.672Z,15.93
2022-10-19T00:16:34.194Z,15.32
2022-10-19T00:17:06.374Z,14.13
2022-10-19T00:17:38.208Z,16.98
2022-10-19T00:18:10.056Z,12.80
2022-10-19T00:18:46.050Z,13.48
2022-10-19T00:19:21.757Z,15.93
2022-10-19T00:19:53.631Z,15.50
2022-10-19T00:20:25.488Z,13.90
2022-10-19T00:21:06.816Z,14.80
2022-10-19T00:21:39.576Z,15.25
2022-10-19T00:22:13.934Z,12.98
2022-10-19T00:22:50.782Z,15.02
2022-10-19T00:23:22.920Z,11.88
2022-10-19T00:23:54.769Z,14.35
2022-10-19T00:24:26.674Z,16.87
2022-10-19T00:24:58.635Z,18.05
2022-10-19T00:25:30.462Z,16.27
2022-10-19T00:26:02.499Z,15.95
2022-10-19T00:26:34.603Z,12.10
2022-10-19T00:27:06.639Z,15.05
2022-10-19T00:27:38.962Z,18.20
2022-10-19T00:28:10.881Z,13.95
2022-10-19T00:28:43.517Z,22.80
2022-10-19T00:29:15.757Z,16.40
2022-10-19T00:29:47.703Z,20.25
2022-10-19T00:30:19.577Z,14.48
2022-10-19T00:30:51.567Z,18.15
2022-10-19T00:31:23.666Z,16.87
2022-10-19T00:31:55.494Z,15.88
2022-10-19T00:32:27.518Z,18.20
2022-10-19T00:32:59.652Z,15.57
2022-10-19T00:33:31.480Z,14.25
2022-10-19T00:34:03.360Z,15.80
2022-10-19T00:34:35.208Z,14.18
2022-10-19T00:35:07.607Z,22.13
2022-10-19T00:35:42.670Z,15.60
2022-10-19T00:36:20.289Z,16.70
2022-10-19T00:36:52.228Z,14.60
2022-10-19T00:37:24.112Z,14.27
2022-10-19T00:37:55.952Z,15.38
2022-10-19T00:38:28.518Z,13.43
2022-10-19T00:39:01.466Z,12.70
2022-10-19T00:39:33.327Z,16.17
2022-10-19T00:40:05.964Z,14.05
2022-10-19T00:40:38.889Z,16.55
2022-10-19T00:41:10.899Z,20.37
2022-10-19T00:41:44.555Z,16.30
2022-10-19T00:42:16.437Z,17.02
2022-10-19T00:42:54.765Z,17.73
2022-10-19T00:43:30.193Z,14.25
2022-10-19T00:44:12.665Z,14.68
2022-10-19T00:44:44.456Z,16.48
2022-10-19T00:45:18.069Z,15.75
2022-10-19T00:45:50.644Z,16.95
2022-10-19T00:46:23.437Z,17.35
2022-10-19T00:47:00.035Z,19.95
2022-10-19T00:47:32.563Z,14.35
2022-10-19T00:48:04.452Z,16.90
2022-10-19T00:48:36.449Z,14.93
2022-10-19T00:49:24.831Z,16.58
2022-10-19T00:49:58.275Z,17.75
2022-10-19T00:50:30.167Z,14.90
2022-10-19T00:51:02.058Z,16.73
2022-10-19T00:51:37.269Z,18.23
2022-10-19T00:52:15.155Z,17.15
2022-10-19T00:52:47.508Z,18.45
2022-10-19T00:53:19.506Z,17.83
2022-10-19T00:53:51.707Z,15.95
2022-10-19T00:54:25.487Z,15.60
2022-10-19T00:54:59.183Z,16.58
2022-10-19T00:55:31.084Z,19.15
2022-10-19T00:56:07.864Z,20.85
2022-10-19T00:56:42.898Z,20.30
2022-10-19T00:57:15.259Z,16.00
2022-10-19T00:57:47.181Z,15.68
2022-10-19T00:58:19.861Z,16.00
2022-10-19T00:58:51.752Z,16.58
2022-10-19T00:59:25.269Z,20.30
2022-10-19T00:59:58.908Z,23.73
2022-10-19T01:00:31.497Z,15.32
2022-10-19T01:01:06.035Z,17.50
2022-10-19T01:01:38.792Z,17.15
2022-10-19T01:02:10.791Z,18.20
2022-10-19T01:02:42.636Z,20.83
2022-10-19T01:03:14.582Z,18.10
2022-10-19T01:03:46.796Z,21.27
2022-10-19T01:04:21.954Z,20.12
2022-10-19T01:04:54.809Z,16.92
2022-10-19T01:05:28.525Z,20.08
2022-10-19T01:06:01.539Z,16.20
2022-10-19T01:06:34.006Z,20.25
2022-10-19T01:07:08.067Z,19.30
2022-10-19T01:07:39.926Z,16.65
2022-10-19T01:08:12.294Z,20.75
2022-10-19T01:08:44.404Z,22.75
2022-10-19T01:09:16.397Z,18.00
2022-10-19T01:09:48.373Z,15.68
2022-10-19T01:10:30.639Z,16.95
2022-10-19T01:11:17.740Z,15.93
2022-10-19T01:12:21.701Z,19.48
2022-10-19T01:12:56.154Z,14.32
2022-10-19T01:13:46.477Z,18.58
2022-10-19T01:14:36.635Z,18.48
2022-10-19T01:15:17.170Z,17.10
2022-10-19T01:16:36.130Z,17.95
2022-10-19T01:17:26.658Z,17.73
2022-10-19T01:18:16.705Z,14.68
2022-10-19T01:19:22.516Z,14.98
2022-10-19T01:20:03.269Z,15.80
2022-10-19T01:21:20.474Z,16.10
2022-10-19T01:22:24.571Z,17.15
2022-10-19T01:23:21.011Z,15.60
2022-10-19T01:24:26.551Z,16.77
2022-10-19T01:25:26.275Z,20.05
2022-10-19T01:26:50.496Z,19.35
2022-10-19T01:27:37.577Z,16.48
2022-10-19T01:28:37.775Z,16.12
2022-10-19T01:29:40.367Z,14.32
2022-10-19T01:30:20.904Z,14.57
2022-10-19T01:31:01.962Z,21.00
2022-10-19T01:31:48.918Z,17.12
2022-10-19T01:32:26.440Z,19.80
2022-10-19T01:33:26.156Z,17.55
2022-10-19T01:34:17.476Z,17.02
2022-10-19T01:35:13.990Z,16.67
2022-10-19T01:36:02.774Z,19.62
2022-10-19T01:37:07.224Z,20.98
2022-10-19T01:37:56.685Z,18.73
2022-10-19T01:39:00.981Z,18.02
2022-10-19T01:39:53.163Z,18.70
2022-10-19T01:40:44.460Z,22.60
2022-10-19T01:41:38.912Z,17.60
2022-10-19T01:42:14.349Z,17.45
2022-10-19T01:43:41.785Z,22.23
2022-10-19T01:44:22.690Z,19.75
2022-10-19T01:44:59.712Z,16.10
2022-10-19T01:45:41.737Z,20.15
2022-10-19T01:46:26.881Z,19.12
2022-10-19T01:47:05.540Z,20.45
2022-10-19T01:47:46.363Z,17.83
2022-10-19T01:49:03.235Z,18.52
2022-10-19T01:49:35.012Z,18.33
2022-10-19T01:50:14.598Z,16.35
2022-10-19T01:50:56.061Z,19.25
2022-10-19T01:51:35.472Z,21.10
2022-10-19T01:52:10.923Z,19.80
2022-10-19T01:52:43.114Z,17.17
2022-10-19T01:53:18.920Z,17.62
2022-10-19T01:53:54.316Z,19.87
2022-10-19T01:54:30.951Z,23.10
2022-10-19T01:55:04.424Z,19.77
2022-10-19T01:55:42.295Z,16.65
2022-10-19T01:56:17.922Z,18.08
2022-10-19T01:56:52.347Z,21.65
2022-10-19T01:57:30.110Z,21.55
2022-10-19T01:58:08.426Z,20.95
2022-10-19T01:58:43.986Z,23.40
2022-10-19T01:59:19.240Z,18.48
2022-10-19T01:59:53.385Z,18.10
2022-10-19T02:00:27.004Z,17.35
2022-10-19T02:01:05.477Z,18.77
2022-10-19T02:01:41.532Z,19.52
2022-10-19T02:02:15.355Z,22.98
2022-10-19T02:02:50.601Z,19.20
2022-10-19T02:03:24.888Z,18.58
2022-10-19T02:03:58.274Z,19.15
2022-10-19T02:04:32.176Z,20.52
2022-10-19T02:05:07.654Z,17.77
2022-10-19T02:05:41.485Z,20.42
2022-10-19T02:06:14.696Z,20.42
2022-10-19T02:06:46.960Z,22.98
2022-10-19T02:07:21.246Z,18.62
2022-10-19T02:07:59.268Z,19.23
2022-10-19T02:08:37.887Z,20.20
2022-10-19T02:09:10.119Z,19.75
2022-10-19T02:09:41.981Z,20.00
2022-10-19T02:10:47.667Z,21.75
2022-10-19T02:11:21.915Z,17.95
2022-10-19T02:11:59.591Z,21.23
2022-10-19T02:12:33.501Z,20.25
2022-10-19T02:13:07.926Z,18.95
2022-10-19T02:13:42.038Z,19.15
2022-10-19T02:14:16.351Z,19.27
2022-10-19T02:14:53.526Z,18.62
2022-10-19T02:15:27.412Z,17.00
2022-10-19T02:16:04.497Z,17.98
2022-10-19T02:16:47.548Z,17.30
2022-10-19T02:17:30.907Z,21.17
2022-10-19T02:18:04.636Z,16.60
2022-10-19T02:18:44.338Z,18.95
2022-10-19T02:19:18.397Z,25.20
2022-10-19T02:19:51.237Z,16.17
2022-10-19T02:20:23.816Z,18.25
2022-10-19T02:20:56.087Z,19.58
2022-10-19T02:21:28.838Z,19.77
2022-10-19T02:22:00.787Z,16.80
2022-10-19T02:22:33.096Z,22.37
2022-10-19T02:23:06.330Z,17.17
2022-10-19T02:23:38.147Z,17.58
2022-10-19T02:24:10.003Z,17.05
2022-10-19T02:24:41.875Z,17.90
2022-10-19T02:25:14.420Z,20.08
2022-10-19T02:25:46.849Z,18.60
2022-10-19T02:26:19.612Z,19.00
2022-10-19T02:26:52.308Z,18.48
2022-10-19T02:27:24.561Z,18.50
2022-10-19T02:27:56.516Z,22.62
2022-10-19T02:28:30.356Z,23.55
2022-10-19T02:29:02.297Z,17.85
2022-10-19T02:29:35.892Z,19.77
2022-10-19T02:30:10.847Z,18.33
2022-10-19T02:30:42.799Z,15.30
2022-10-19T02:31:14.620Z,15.43
2022-10-19T02:31:46.645Z,19.35
2022-10-19T02:32:18.626Z,17.50
2022-10-19T02:32:51.127Z,17.52
2022-10-19T02:33:23.251Z,18.90
2022-10-19T02:33:55.765Z,18.52
2022-10-19T02:34:27.802Z,17.30
2022-10-19T02:34:59.732Z,21.25
2022-10-19T02:35:31.697Z,18.65
2022-10-19T02:36:03.712Z,22.70
2022-10-19T02:36:35.902Z,17.67
2022-10-19T02:37:07.943Z,18.62
2022-10-19T02:37:40.472Z,20.45
2022-10-19T02:38:16.817Z,19.30
2022-10-19T02:38:48.801Z,18.12
2022-10-19T02:39:21.563Z,16.83
2022-10-19T02:39:53.575Z,19.42
2022-10-19T02:40:26.901Z,22.45
2022-10-19T02:41:06.519Z,18.87
2022-10-19T02:41:48.695Z,21.85
2022-10-19T02:42:29.079Z,18.45
2022-10-19T02:43:06.457Z,18.15
2022-10-19T02:43:40.887Z,19.48
2022-10-19T02:44:22.593Z,19.25
2022-10-19T02:45:08.692Z,20.12
2022-10-19T02:45:51.160Z,19.08
2022-10-19T02:46:28.899Z,21.00
2022-10-19T02:47:11.508Z,20.48
2022-10-19T02:47:50.887Z,21.02
2022-10-19T02:48:25.917Z,16.60
2022-10-19T02:48:58.986Z,21.20
2022-10-19T02:49:34.338Z,18.37
2022-10-19T02:50:08.542Z,19.35
2022-10-19T02:50:45.044Z,17.00
2022-10-19T02:51:30.240Z,17.05
2022-10-19T02:52:05.118Z,17.83
2022-10-19T02:52:38.470Z,18.30
2022-10-19T02:53:10.409Z,16.30
2022-10-19T02:53:42.256Z,21.85
2022-10-19T02:54:14.091Z,21.08
2022-10-19T02:54:46.002Z,17.65
2022-10-19T02:55:18.261Z,20.00
2022-10-19T02:55:51.573Z,16.35
2022-10-19T02:56:23.612Z,17.58
2022-10-19T02:56:56.547Z,14.35
2022-10-19T02:57:28.384Z,15.15
2022-10-19T02:58:00.251Z,17.87
2022-10-19T02:58:32.079Z,21.73
2022-10-19T02:59:03.958Z,23.90
2022-10-19T02:59:35.888Z,18.48
2022-10-19T03:00:08.820Z,16.33
2022-10-19T03:00:41.555Z,18.30
2022-10-19T03:01:14.648Z,15.60
2022-10-19T03:01:46.655Z,20.33
2022-10-19T03:02:19.923Z,17.23
2022-10-19T03:02:51.835Z,15.90
2022-10-19T03:03:23.639Z,17.75
2022-10-19T03:03:55.637Z,16.20
2022-10-19T03:04:27.480Z,16.90
2022-10-19T03:04:59.308Z,17.42
2022-10-19T03:05:31.169Z,21.83
2022-10-19T03:06:03.353Z,17.10
2022-10-19T03:06:35.197Z,21.17
2022-10-19T03:07:08.390Z,21.40
2022-10-19T03:07:41.432Z,17.50
2022-10-19T03:08:13.299Z,15.70
2022-10-19T03:08:45.195Z,16.05
2022-10-19T03:09:17.183Z,17.05
2022-10-19T03:09:49.515Z,22.20
2022-10-19T03:10:21.390Z,16.23
2022-10-19T03:10:53.223Z,19.12
2022-10-19T03:11:25.362Z,21.90
2022-10-19T03:11:57.185Z,18.33
2022-10-19T03:12:29.052Z,19.75
2022-10-19T03:13:00.890Z,17.58
2022-10-19T03:13:32.912Z,17.58
2022-10-19T03:14:04.788Z,18.35
2022-10-19T03:14:36.646Z,18.75
2022-10-19T03:15:09.253Z,17.20
2022-10-19T03:15:41.046Z,14.93
2022-10-19T03:16:13.834Z,15.20
2022-10-19T03:16:46.008Z,15.70
2022-10-19T03:17:17.893Z,19.30
2022-10-19T03:17:53.193Z,17.10
2022-10-19T03:18:25.061Z,18.42
2022-10-19T03:18:56.922Z,21.12
2022-10-19T03:19:28.891Z,18.23
2022-10-19T03:20:00.777Z,15.23
2022-10-19T03:20:32.659Z,18.90
2022-10-19T03:21:10.959Z,16.33
2022-10-19T03:21:42.845Z,15.82
2022-10-19T03:22:15.103Z,15.55
2022-10-19T03:22:47.040Z,18.85
2022-10-19T03:23:18.874Z,19.05
2022-10-19T03:23:50.707Z,20.62
2022-10-19T03:24:22.600Z,22.10
2022-10-19T03:24:54.559Z,18.60
2022-10-19T03:25:26.433Z,19.48
2022-10-19T03:25:58.287Z,18.58
2022-10-19T03:26:30.134Z,20.00
2022-10-19T03:27:02.198Z,20.88
2022-10-19T03:27:34.518Z,20.58
2022-10-19T03:28:06.612Z,19.05
2022-10-19T03:28:38.519Z,19.77
2022-10-19T03:29:10.498Z,20.05
2022-10-19T03:29:43.236Z,18.65
2022-10-19T03:30:15.117Z,20.12
2022-10-19T03:30:46.929Z,18.35
2022-10-19T03:31:19.423Z,17.23
2022-10-19T03:31:51.503Z,17.95
2022-10-19T03:32:23.349Z,19.75
2022-10-19T03:32:55.462Z,19.12
2022-10-19T03:33:27.334Z,21.30
2022-10-19T03:33:59.218Z,18.52
2022-10-19T03:34:31.126Z,17.35
2022-10-19T03:35:02.993Z,16.65
2022-10-19T03:35:34.827Z,18.17
2022-10-19T03:36:23.983Z,19.67
2022-10-19T03:36:56.836Z,17.17
2022-10-19T03:37:28.771Z,17.30
2022-10-19T03:38:00.934Z,22.50
2022-10-19T03:38:32.807Z,16.12
2022-10-19T03:39:07.512Z,18.70
2022-10-19T03:39:39.387Z,16.48
2022-10-19T03:40:11.264Z,20.05
2022-10-19T03:40:43.528Z,17.10
2022-10-19T03:41:15.355Z,13.75
2022-10-19T03:41:47.338Z,16.58
2022-10-19T03:42:19.231Z,14.60
2022-10-19T03:42:51.045Z,19.70
2022-10-19T03:43:23.180Z,19.98
2022-10-19T03:43:55.178Z,16.62
2022-10-19T03:44:27.111Z,19.95
2022-10-19T03:44:58.970Z,17.20
2022-10-19T03:45:30.803Z,19.45
2022-10-19T03:46:02.731Z,17.10
2022-10-19T03:46:35.573Z,17.92
2022-10-19T03:47:07.385Z,20.12
2022-10-19T03:47:39.230Z,20.83
2022-10-19T03:48:11.063Z,18.80
2022-10-19T03:48:43.818Z,22.87
2022-10-19T03:49:16.024Z,19.37
2022-10-19T03:49:50.203Z,15.40
2022-10-19T03:50:21.993Z,19.08
2022-10-19T03:51:09.532Z,17.37
2022-10-19T03:51:41.659Z,16.55
2022-10-19T03:52:13.644Z,18.58
2022-10-19T03:52:45.508Z,16.87
2022-10-19T03:53:17.344Z,17.65
2022-10-19T03:53:53.667Z,33.30
2022-10-19T03:54:27.427Z,22.95
2022-10-19T03:54:59.612Z,30.30
2022-10-19T03:55:31.549Z,21.80
2022-10-19T03:56:15.456Z,16.58
2022-10-19T03:56:47.351Z,16.00
2022-10-19T03:57:19.358Z,21.73
2022-10-19T03:57:51.215Z,18.70
2022-10-19T03:58:23.063Z,18.33
2022-10-19T03:58:56.994Z,19.80
2022-10-19T03:59:28.864Z,23.65
2022-10-19T04:00:00.794Z,18.87
2022-10-19T04:00:32.797Z,19.52
2022-10-19T04:01:17.311Z,19.75
2022-10-19T04:01:49.395Z,18.62
2022-10-19T04:02:21.314Z,21.55
2022-10-19T04:02:53.177Z,23.35
2022-10-19T04:03:25.542Z,19.40
2022-10-19T04:04:00.474Z,25.45
2022-10-19T04:04:32.354Z,21.37
2022-10-19T04:05:04.602Z,21.55
2022-10-19T04:05:36.508Z,19.02
2022-10-19T04:06:11.693Z,20.05
2022-10-19T04:06:45.992Z,21.25
2022-10-19T04:07:18.028Z,19.10
2022-10-19T04:07:49.944Z,17.90
2022-10-19T04:08:21.744Z,19.60
2022-10-19T04:08:53.715Z,24.67
2022-10-19T04:09:25.583Z,17.17
2022-10-19T04:09:57.470Z,17.35
2022-10-19T04:10:31.514Z,23.73
2022-10-19T04:11:05.923Z,23.50
2022-10-19T04:11:39.057Z,15.98
2022-10-19T04:12:10.996Z,17.90
2022-10-19T04:12:42.834Z,16.65
2022-10-19T04:13:14.780Z,15.07
2022-10-19T04:13:50.340Z,15.25
2022-10-19T04:14:32.225Z,17.95
2022-10-19T04:15:05.572Z,17.50
2022-10-19T04:15:37.392Z,16.42
2022-10-19T04:16:13.806Z,16.05
2022-10-19T04:16:45.915Z,34.03
2022-10-19T04:17:17.784Z,29.90
2022-10-19T04:17:49.635Z,21.67
2022-10-19T04:18:21.712Z,17.75
2022-10-19T04:18:53.872Z,16.87
2022-10-19T04:19:25.718Z,17.55
2022-10-19T04:19:57.627Z,19.12
2022-10-19T04:20:29.490Z,16.20
2022-10-19T04:21:05.917Z,14.40
2022-10-19T04:21:39.667Z,16.10
2022-10-19T04:22:11.814Z,17.73
2022-10-19T04:22:43.662Z,17.17
2022-10-19T04:23:56.817Z,15.82
2022-10-19T04:24:28.962Z,20.37
2022-10-19T04:25:00.782Z,17.50
2022-10-19T04:25:32.621Z,15.50
2022-10-19T04:26:07.545Z,17.85
2022-10-19T04:26:45.950Z,18.83
2022-10-19T04:27:18.188Z,21.25
2022-10-19T04:27:50.109Z,18.27
2022-10-19T04:28:22.132Z,16.50
2022-10-19T04:28:54.227Z,16.95
2022-10-19T04:29:29.681Z,15.98
2022-10-19T04:30:02.806Z,18.10
2022-10-19T04:30:34.658Z,18.35
2022-10-19T04:31:07.261Z,21.23
2022-10-19T04:31:40.133Z,18.55
2022-10-19T04:32:12.037Z,18.52
2022-10-19T04:32:44.192Z,17.85
2022-10-19T04:33:16.017Z,17.15
2022-10-19T04:33:47.899Z,18.92
2022-10-19T04:34:20.142Z,16.05
2022-10-19T04:34:52.010Z,16.52
2022-10-19T04:35:23.884Z,22.02
2022-10-19T04:36:02.932Z,20.67
2022-10-19T04:36:34.955Z,16.27
2022-10-19T04:37:06.820Z,19.73
2022-10-19T04:37:38.646Z,16.80
2022-10-19T04:38:12.124Z,17.12
2022-10-19T04:38:43.970Z,20.77
2022-10-19T04:39:15.847Z,19.23
2022-10-19T04:39:47.722Z,18.35
2022-10-19T04:40:19.561Z,23.65
2022-10-19T04:40:51.437Z,19.33
2022-10-19T04:41:23.890Z,25.55
2022-10-19T04:41:55.820Z,20.05
2022-10-19T04:42:27.705Z,20.88
2022-10-19T04:42:59.520Z,22.92
2022-10-19T04:43:32.034Z,17.05
2022-10-19T04:44:08.648Z,27.83
2022-10-19T04:44:40.883Z,20.30
2022-10-19T04:45:12.748Z,27.30
2022-10-19T04:45:44.553Z,18.75
2022-10-19T04:46:19.321Z,28.75
2022-10-19T04:46:51.264Z,23.23
2022-10-19T04:47:23.149Z,24.15
2022-10-19T04:47:56.564Z,24.12
2022-10-19T04:48:28.418Z,21.00
2022-10-19T04:49:00.641Z,24.10
2022-10-19T04:49:32.486Z,23.85
2022-10-19T04:50:04.604Z,28.85
2022-10-19T04:50:36.444Z,24.75
2022-10-19T04:51:10.408Z,23.38
2022-10-19T04:51:42.314Z,20.55
2022-10-19T04:52:14.127Z,24.35
2022-10-19T04:52:45.973Z,28.50
2022-10-19T04:53:19.287Z,23.58
2022-10-19T04:53:52.549Z,24.48
2022-10-19T04:54:26.598Z,24.67
2022-10-19T04:54:58.436Z,21.42
2022-10-19T04:55:30.369Z,30.67
2022-10-19T04:56:06.405Z,27.70
2022-10-19T04:56:39.683Z,23.85
2022-10-19T04:57:12.571Z,28.25
2022-10-19T04:57:44.400Z,24.90
2022-10-19T04:58:17.140Z,26.45
2022-10-19T04:58:49.265Z,22.58
2022-10-19T04:59:21.103Z,21.80
2022-10-19T04:59:53.327Z,29.25
2022-10-19T05:00:25.454Z,25.73
2022-10-19T05:00:57.342Z,50.47
2022-10-19T05:01:30.841Z,30.73
2022-10-19T05:02:02.928Z,22.92
2022-10-19T05:02:37.295Z,29.73
2022-10-19T05:03:09.383Z,22.77
2022-10-19T05:03:41.234Z,25.90
2022-10-19T05:04:13.104Z,24.50
2022-10-19T05:04:45.281Z,28.02
2022-10-19T05:05:17.620Z,21.23
2022-10-19T05:05:49.503Z,28.45
2022-10-19T05:06:22.198Z,21.37
2022-10-19T05:06:54.026Z,24.27
2022-10-19T05:07:25.851Z,25.58
2022-10-19T05:07:57.713Z,22.92
2022-10-19T05:08:29.695Z,21.33
2022-10-19T05:09:01.531Z,23.55
2022-10-19T05:09:33.468Z,28.83
2022-10-19T05:10:06.867Z,22.27
2022-10-19T05:10:39.926Z,23.75
2022-10-19T05:11:15.394Z,24.20
2022-10-19T05:11:49.997Z,27.83
2022-10-19T05:12:21.893Z,25.30
2022-10-19T05:12:53.788Z,31.77
2022-10-19T05:13:25.648Z,19.75
2022-10-19T05:13:57.649Z,29.87
2022-10-19T05:14:29.493Z,24.58
2022-10-19T05:15:01.360Z,26.20
2022-10-19T05:15:33.588Z,27.08
2022-10-19T05:16:07.343Z,24.25
2022-10-19T05:16:39.244Z,22.37
2022-10-19T05:17:11.166Z,25.35
2022-10-19T05:17:43.003Z,26.58
2022-10-19T05:18:14.859Z,21.85
2022-10-19T05:18:48.949Z,24.60
2022-10-19T05:19:20.811Z,28.98
2022-10-19T05:19:52.635Z,25.10
2022-10-19T05:20:24.742Z,22.77
2022-10-19T05:21:03.601Z,27.67
2022-10-19T05:21:35.723Z,23.00
2022-10-19T05:22:08.780Z,21.42
2022-10-19T05:22:40.656Z,24.90
2022-10-19T05:23:12.522Z,26.95
2022-10-19T05:23:44.820Z,22.83
2022-10-19T05:24:16.724Z,27.48
2022-10-19T05:24:48.538Z,22.83
2022-10-19T05:25:20.415Z,21.65
2022-10-19T05:26:02.875Z,26.55
2022-10-19T05:26:34.692Z,21.85
2022-10-19T05:27:06.831Z,20.02
2022-10-19T05:27:38.815Z,30.50
2022-10-19T05:28:10.661Z,24.10
2022-10-19T05:28:47.580Z,28.62
2022-10-19T05:29:19.564Z,24.52
2022-10-19T05:29:51.417Z,25.58
2022-10-19T05:30:23.255Z,22.90
2022-10-19T05:30:56.152Z,24.02
2022-10-19T05:31:30.176Z,21.90
2022-10-19T05:32:02.026Z,26.75
2022-10-19T05:32:34.757Z,25.02
2022-10-19T05:33:06.609Z,27.10
2022-10-19T05:33:39.514Z,23.73
2022-10-19T05:34:11.404Z,21.98
2022-10-19T05:34:43.319Z,22.33
2022-10-19T05:35:17.508Z,26.15
2022-10-19T05:35:51.909Z,28.40
2022-10-19T05:36:29.421Z,24.35
2022-10-19T05:37:01.316Z,24.45
2022-10-19T05:37:33.460Z,27.65
2022-10-19T05:38:05.773Z,26.98
2022-10-19T05:38:37.673Z,27.17
2022-10-19T05:39:14.195Z,30.98
2022-10-19T05:39:46.033Z,24.40
2022-10-19T05:40:17.870Z,30.23
2022-10-19T05:40:52.950Z,23.15
2022-10-19T05:41:26.455Z,27.15
2022-10-19T05:41:58.330Z,34.05
2022-10-19T05:42:30.212Z,28.05
2022-10-19T05:43:02.042Z,40.03
2022-10-19T05:43:34.331Z,28.42
2022-10-19T05:44:06.399Z,34.78
2022-10-19T05:45:15.056Z,30.60
2022-10-19T05:45:46.944Z,25.88
2022-10-19T05:46:19.351Z,30.90
2022-10-19T05:46:52.078Z,21.58
2022-10-19T05:47:27.348Z,27.87
2022-10-19T05:48:02.072Z,30.40
2022-10-19T05:48:35.558Z,30.92
2022-10-19T05:49:07.466Z,30.55
2022-10-19T05:49:39.323Z,27.67
2022-10-19T05:50:11.168Z,31.48
2022-10-19T05:50:55.241Z,25.33
2022-10-19T05:51:28.446Z,28.83
2022-10-19T05:52:00.411Z,24.25
2022-10-19T05:52:32.232Z,30.45
2022-10-19T05:53:04.060Z,24.70
2022-10-19T05:53:36.313Z,39.47
2022-10-19T05:54:08.610Z,27.00
2022-10-19T05:54:40.674Z,25.45
2022-10-19T05:55:12.488Z,27.70
2022-10-19T05:55:44.294Z,24.50
2022-10-19T05:56:19.014Z,26.62
2022-10-19T05:56:50.925Z,25.33
2022-10-19T05:57:22.773Z,24.35
2022-10-19T05:57:54.647Z,25.92
2022-10-19T05:58:26.821Z,25.98
2022-10-19T05:59:02.047Z,28.02
2022-10-19T05:59:34.267Z,25.67
2022-10-19T06:00:06.505Z,24.42
2022-10-19T06:00:43.510Z,20.62
2022-10-19T06:01:18.926Z,25.50
2022-10-19T06:01:51.170Z,25.95
2022-10-19T06:02:23.071Z,22.92
2022-10-19T06:02:59.057Z,27.98
2022-10-19T06:03:31.487Z,18.20
2022-10-19T06:04:04.263Z,23.65
2022-10-19T06:04:36.142Z,19.08
2022-10-19T06:05:08.128Z,20.48
2022-10-19T06:05:39.928Z,28.60
2022-10-19T06:06:12.203Z,21.00
2022-10-19T06:06:44.415Z,22.17
2022-10-19T06:07:16.349Z,22.60
2022-10-19T06:07:48.179Z,21.77
2022-10-19T06:08:21.573Z,19.67
2022-10-19T06:08:55.348Z,21.75
2022-10-19T06:09:27.254Z,22.67
2022-10-19T06:09:59.113Z,23.35
2022-10-19T06:10:30.944Z,19.37
2022-10-19T06:11:11.411Z,19.48
2022-10-19T06:11:43.685Z,26.62
2022-10-19T06:12:16.397Z,18.20
2022-10-19T06:12:48.344Z,19.08
2022-10-19T06:13:20.412Z,19.73
2022-10-19T06:13:54.997Z,19.25
2022-10-19T06:14:26.809Z,19.12
2022-10-19T06:14:58.651Z,13.77
2022-10-19T06:15:33.880Z,27.95
2022-10-19T06:16:07.453Z,25.70
2022-10-19T06:16:39.629Z,28.00
2022-10-19T06:17:11.493Z,49.80
2022-10-19T06:17:43.599Z,112.15
2022-10-19T06:18:15.406Z,95.10
2022-10-19T06:18:47.379Z,81.05
2022-10-19T06:19:19.236Z,30.00
2022-10-19T06:19:51.069Z,22.20
2022-10-19T06:20:22.907Z,27.48
2022-10-19T06:20:54.759Z,23.90
2022-10-19T06:21:29.918Z,19.52
2022-10-19T06:22:01.800Z,22.83
2022-10-19T06:22:33.619Z,24.75
2022-10-19T06:23:06.291Z,30.12
2022-10-19T06:23:38.426Z,18.60
2022-10-19T06:24:10.943Z,17.17
2022-10-19T06:24:42.768Z,17.60
2022-10-19T06:25:17.992Z,21.33
2022-10-19T06:25:52.173Z,16.73
2022-10-19T06:26:24.545Z,18.15
2022-10-19T06:26:56.442Z,15.90
2022-10-19T06:27:29.175Z,19.02
2022-10-19T06:28:01.788Z,19.20
2022-10-19T06:28:34.953Z,22.87
2022-10-19T06:29:06.869Z,19.87
2022-10-19T06:29:38.692Z,18.92
2022-10-19T06:30:11.195Z,18.75
2022-10-19T06:30:43.122Z,19.02
2022-10-19T06:31:16.026Z,19.42
2022-10-19T06:31:48.087Z,17.20
2022-10-19T06:32:19.971Z,18.83
2022-10-19T06:32:51.954Z,22.48
2022-10-19T06:33:23.895Z,23.42
2022-10-19T06:33:56.503Z,19.55
2022-10-19T06:34:28.404Z,17.80
2022-10-19T06:35:00.275Z,20.83
2022-10-19T06:35:32.136Z,17.30
2022-10-19T06:36:06.821Z,19.83
2022-10-19T06:36:38.689Z,20.58
2022-10-19T06:37:10.528Z,20.80
2022-10-19T06:37:43.113Z,14.50
2022-10-19T06:38:15.148Z,14.73
2022-10-19T06:38:47.819Z,17.23
2022-10-19T06:39:19.976Z,12.60
2022-10-19T06:39:51.836Z,14.87
2022-10-19T06:40:25.105Z,14.02
2022-10-19T06:41:00.528Z,16.67
2022-10-19T06:41:32.700Z,14.40
2022-10-19T06:42:10.252Z,14.85
2022-10-19T06:42:42.151Z,11.35
2022-10-19T06:43:14.103Z,15.35
2022-10-19T06:43:52.676Z,13.93
2022-10-19T06:44:24.802Z,12.65
2022-10-19T06:44:56.638Z,13.80
2022-10-19T06:45:32.227Z,12.93
2022-10-19T06:46:08.665Z,14.13
2022-10-19T06:46:40.507Z,10.95
2022-10-19T06:47:12.392Z,11.85
2022-10-19T06:47:44.353Z,12.80
2022-10-19T06:48:16.217Z,12.60
2022-10-19T06:48:59.429Z,12.48
2022-10-19T06:49:31.525Z,14.20
2022-10-19T06:50:05.391Z,13.80
2022-10-19T06:50:37.237Z,13.13
2022-10-19T06:51:09.130Z,12.10
2022-10-19T06:51:41.006Z,11.35
2022-10-19T06:52:12.994Z,13.75
2022-10-19T06:52:46.083Z,14.05
2022-10-19T06:53:17.924Z,13.07
2022-10-19T06:53:54.188Z,10.82
2022-10-19T06:54:29.584Z,13.75
2022-10-19T06:55:02.492Z,12.90
2022-10-19T06:55:34.497Z,10.98
2022-10-19T06:56:10.265Z,12.82
2022-10-19T06:56:42.173Z,10.43
2022-10-19T06:57:14.025Z,12.15
2022-10-19T06:57:45.831Z,11.50
2022-10-19T06:58:17.692Z,9.00
2022-10-19T06:58:49.981Z,11.95
2022-10-19T06:59:21.940Z,11.43
2022-10-19T06:59:53.825Z,11.90
2022-10-19T07:00:26.024Z,14.00
2022-10-19T07:00:59.690Z,13.32
2022-10-19T07:01:31.702Z,12.52
2022-10-19T07:02:03.596Z,13.25
2022-10-19T07:02:35.441Z,12.68
2022-10-19T07:03:07.600Z,10.98
2022-10-19T07:03:40.066Z,11.32
2022-10-19T07:04:12.019Z,11.50
2022-10-19T07:04:43.954Z,12.63
2022-10-19T07:05:15.975Z,15.70
2022-10-19T07:06:03.999Z,14.77
2022-10-19T07:06:35.999Z,12.82
2022-10-19T07:07:07.932Z,9.77
2022-10-19T07:07:39.812Z,10.93
2022-10-19T07:08:11.782Z,14.57
2022-10-19T07:08:44.274Z,12.13
2022-10-19T07:09:16.091Z,12.98
2022-10-19T07:09:48.614Z,12.20
2022-10-19T07:10:20.538Z,15.43
2022-10-19T07:10:53.999Z,15.27
2022-10-19T07:11:25.858Z,12.32
2022-10-19T07:11:57.735Z,12.15
2022-10-19T07:12:29.570Z,10.95
2022-10-19T07:13:01.566Z,11.05
2022-10-19T07:13:33.868Z,10.18
2022-10-19T07:14:05.684Z,10.45
2022-10-19T07:14:39.702Z,10.38
2022-10-19T07:15:11.673Z,11.82
2022-10-19T07:15:43.510Z,11.32
2022-10-19T07:16:21.066Z,11.30
2022-10-19T07:16:53.499Z,10.15
2022-10-19T07:17:25.389Z,11.23
2022-10-19T07:17:57.233Z,10.82
2022-10-19T07:18:29.273Z,12.23
2022-10-19T07:19:01.108Z,13.48
2022-10-19T07:19:33.200Z,9.55
2022-10-19T07:20:05.565Z,13.23
2022-10-19T07:20:37.569Z,12.07
2022-10-19T07:21:12.752Z,12.68
2022-10-19T07:21:45.356Z,14.20
2022-10-19T07:22:22.177Z,11.65
2022-10-19T07:22:57.529Z,10.55
2022-10-19T07:23:31.176Z,10.65
2022-10-19T07:24:03.053Z,14.65